Time;durP1;ratioP1;P1;durP2;ratioP2;P2;SDS_P1;SDS_P2;PMS_P1;PMS_P2;Temp;Humidity;BMP_temperature;BMP_pressure;BME280_temperature;BME280_humidity;BME280_pressure;Samples;Min_cycle;Max_cycle;Signal;HPM_P1;HPM_P2
2023/09/06 00:18:37;;;;;;;12.48;9.38;;;16.80;99.90;;;;;;4570759;19;20094;-75
2023/09/06 00:20:24;;;;;;;10.30;8.43;;;16.80;99.90;;;;;;4593056;19;20088;-76
2023/09/06 00:21:59;;;;;;;10.23;8.77;;;16.80;99.90;;;;;;4591714;19;20006;-76
2023/09/06 00:23:32;;;;;;;9.45;8.07;;;16.80;99.90;;;;;;4592734;19;20046;-76
2023/09/06 00:25:10;;;;;;;9.35;7.80;;;16.70;99.90;;;;;;4592746;19;20429;-76
2023/09/06 00:26:51;;;;;;;9.55;8.40;;;16.80;99.90;;;;;;4591131;19;20010;-76
2023/09/06 00:28:33;;;;;;;10.18;9.07;;;16.70;99.90;;;;;;4590104;19;20015;-76
2023/09/06 00:30:12;;;;;;;9.52;7.82;;;16.70;99.90;;;;;;4591246;19;20318;-76
2023/09/06 00:31:53;;;;;;;10.13;7.65;;;16.70;99.90;;;;;;4590964;19;20038;-76
2023/09/06 00:33:33;;;;;;;9.15;8.10;;;16.60;99.90;;;;;;4593666;19;20338;-76
2023/09/06 00:35:12;;;;;;;10.05;8.45;;;16.70;99.90;;;;;;4594589;19;20019;-76
2023/09/06 00:36:54;;;;;;;9.40;7.70;;;16.60;99.90;;;;;;4591327;19;20013;-76
2023/09/06 00:38:36;;;;;;;10.63;8.88;;;16.70;99.90;;;;;;4590376;19;20363;-76
2023/09/06 00:40:18;;;;;;;10.48;8.05;;;16.60;99.90;;;;;;4590692;19;20014;-76
2023/09/06 00:42:00;;;;;;;10.95;9.32;;;16.60;99.90;;;;;;4590588;19;20013;-76
2023/09/06 00:43:40;;;;;;;;;;;16.70;99.90;;;;;;4592533;19;20017;-76
2023/09/06 00:45:20;;;;;;;10.57;8.32;;;16.60;99.90;;;;;;4590983;19;20344;-76
2023/09/06 00:46:59;;;;;;;11.73;8.70;;;16.60;99.90;;;;;;4591142;19;20011;-76
2023/09/06 00:48:40;;;;;;;11.05;9.05;;;16.60;99.90;;;;;;4589595;19;20034;-76
2023/09/06 00:50:20;;;;;;;13.52;10.25;;;16.60;99.90;;;;;;4590807;19;20033;-76
2023/09/06 00:52:01;;;;;;;11.10;8.82;;;16.60;99.90;;;;;;4590628;19;20018;-76
2023/09/06 00:53:43;;;;;;;11.38;9.15;;;16.50;99.90;;;;;;4590385;19;20011;-76
2023/09/06 00:55:36;;;;;;;12.90;9.95;;;16.50;99.90;;;;;;4588943;19;20035;-76
2023/09/06 00:57:16;;;;;;;11.07;9.52;;;16.50;99.90;;;;;;4590879;19;20014;-76
2023/09/06 00:58:58;;;;;;;12.65;9.25;;;16.50;99.90;;;;;;4589496;19;20034;-76
2023/09/06 01:00:39;;;;;;;13.85;10.25;;;16.50;99.90;;;;;;4590281;19;20018;-76
2023/09/06 01:02:18;;;;;;;12.82;10.13;;;16.50;99.90;;;;;;4590269;19;20420;-76
2023/09/06 01:03:59;;;;;;;11.27;9.43;;;16.50;99.90;;;;;;4590392;19;20026;-76
2023/09/06 01:06:04;;;;;;;11.68;8.48;;;16.50;99.90;;;;;;4590491;19;20014;-76
2023/09/06 01:07:37;;;;;;;11.07;8.65;;;16.40;99.90;;;;;;4590490;19;20316;-76
2023/09/06 01:09:16;;;;;;;10.23;7.68;;;16.50;99.90;;;;;;4591673;19;20018;-76
2023/09/06 01:11:10;;;;;;;10.40;8.32;;;16.50;99.90;;;;;;4590788;19;20015;-76
2023/09/06 01:12:48;;;;;;;9.63;7.78;;;16.50;99.90;;;;;;4590463;19;20010;-76
2023/09/06 01:14:29;;;;;;;9.40;8.40;;;16.50;99.90;;;;;;4590003;19;20006;-76
2023/09/06 01:16:10;;;;;;;10.63;8.80;;;16.40;99.90;;;;;;4590103;19;20014;-76
2023/09/06 01:17:47;;;;;;;9.40;8.38;;;16.40;99.90;;;;;;4590240;19;20030;-75
2023/09/06 01:19:24;;;;;;;9.63;8.13;;;16.40;99.90;;;;;;4588521;19;20050;-76
2023/09/06 01:21:10;;;;;;;9.18;8.10;;;16.40;99.90;;;;;;4588328;19;20028;-76
2023/09/06 01:22:56;;;;;;;11.50;8.27;;;16.30;99.90;;;;;;4588274;19;20014;-76
2023/09/06 01:24:36;;;;;;;10.02;8.43;;;16.30;99.90;;;;;;4592008;19;20014;-76
2023/09/06 01:26:18;;;;;;;8.68;7.63;;;16.30;99.90;;;;;;4594737;19;20025;-76
2023/09/06 01:27:51;;;;;;;10.02;7.90;;;16.30;99.90;;;;;;4594769;19;20560;-76
2023/09/06 01:29:30;;;;;;;8.88;7.68;;;16.40;99.90;;;;;;4595556;19;20003;-76
2023/09/06 01:31:11;;;;;;;11.68;8.50;;;16.30;99.90;;;;;;4594641;19;20011;-76
2023/09/06 01:33:03;;;;;;;9.18;7.95;;;16.30;99.90;;;;;;4591291;19;20021;-76
2023/09/06 01:34:54;;;;;;;;;;;16.30;99.90;;;;;;4592950;19;20015;-76
2023/09/06 01:36:34;;;;;;;12.10;9.07;;;16.30;99.90;;;;;;4594786;19;19918;-76
2023/09/06 01:38:15;;;;;;;10.40;8.57;;;16.20;99.90;;;;;;4593888;19;20044;-76
2023/09/06 01:39:56;;;;;;;10.07;8.80;;;16.20;99.90;;;;;;4594530;19;20017;-76
2023/09/06 01:41:35;;;;;;;10.38;8.85;;;16.20;99.90;;;;;;4594702;19;20017;-76
2023/09/06 01:43:16;;;;;;;12.07;9.13;;;16.20;99.90;;;;;;4592776;19;20014;-76
2023/09/06 01:44:58;;;;;;;11.80;9.80;;;16.20;99.90;;;;;;4594386;19;20074;-75
2023/09/06 01:46:46;;;;;;;13.25;10.25;;;16.20;99.90;;;;;;4594591;19;20322;-76
2023/09/06 01:48:23;;;;;;;12.60;9.70;;;16.20;99.90;;;;;;4595087;19;20039;-76
2023/09/06 01:50:04;;;;;;;12.98;10.63;;;16.20;99.90;;;;;;4594246;19;20015;-76
2023/09/06 01:51:44;;;;;;;11.85;10.30;;;16.20;99.90;;;;;;4594381;19;20011;-76
2023/09/06 01:53:32;;;;;;;12.65;10.20;;;16.20;99.90;;;;;;4594070;19;20025;-76
2023/09/06 01:55:10;;;;;;;12.05;10.20;;;16.20;99.90;;;;;;4595637;19;20006;-76
2023/09/06 01:56:52;;;;;;;10.88;9.70;;;16.20;99.90;;;;;;4594434;19;20006;-76
2023/09/06 01:58:32;;;;;;;13.38;9.95;;;16.10;99.90;;;;;;4592807;19;20014;-76
2023/09/06 02:00:28;;;;;;;14.88;10.82;;;16.10;99.90;;;;;;4594072;19;20493;-76
2023/09/06 02:02:09;;;;;;;13.77;10.40;;;16.10;99.90;;;;;;4594199;19;20014;-75
2023/09/06 02:03:49;;;;;;;17.05;11.57;;;16.10;99.90;;;;;;4593880;19;20449;-76
2023/09/06 02:05:31;;;;;;;14.63;10.85;;;16.00;99.90;;;;;;4593965;19;20038;-76
2023/09/06 02:07:24;;;;;;;12.13;9.57;;;16.00;99.90;;;;;;4590747;19;20070;-76
2023/09/06 02:09:03;;;;;;;14.10;10.63;;;16.00;99.90;;;;;;4592696;19;20322;-75
2023/09/06 02:10:44;;;;;;;14.38;10.65;;;16.00;99.90;;;;;;4593676;19;20054;-76
2023/09/06 02:12:25;;;;;;;13.45;9.90;;;16.00;99.90;;;;;;4593737;19;20010;-75
2023/09/06 02:14:04;;;;;;;13.25;10.30;;;16.00;99.90;;;;;;4594223;19;20037;-76
2023/09/06 02:15:45;;;;;;;13.40;10.52;;;16.00;99.90;;;;;;4593560;19;20025;-76
2023/09/06 02:17:28;;;;;;;13.18;10.38;;;16.00;99.90;;;;;;4593700;19;20017;-75
2023/09/06 02:19:08;;;;;;;14.95;9.93;;;16.00;99.90;;;;;;4592563;19;20014;-76
2023/09/06 02:20:50;;;;;;;13.80;10.23;;;15.90;99.90;;;;;;4593535;19;20014;-76
2023/09/06 02:22:31;;;;;;;15.88;10.73;;;15.90;99.90;;;;;;4593009;19;20010;-75
2023/09/06 02:24:10;;;;;;;12.95;9.73;;;15.90;99.90;;;;;;4594031;19;20003;-75
2023/09/06 02:25:46;;;;;;;12.98;9.77;;;15.90;99.90;;;;;;4591193;19;20014;-75
2023/09/06 02:27:23;;;;;;;12.90;10.38;;;15.90;99.90;;;;;;4591433;19;20014;-76
2023/09/06 02:29:04;;;;;;;11.93;9.52;;;15.90;99.90;;;;;;4591220;19;20018;-75
2023/09/06 02:30:43;;;;;;;10.40;9.30;;;15.90;99.90;;;;;;4591972;19;20058;-76
2023/09/06 02:32:24;;;;;;;11.55;9.55;;;15.90;99.90;;;;;;4591210;19;20487;-75
2023/09/06 02:34:04;;;;;;;10.93;8.63;;;15.90;99.90;;;;;;4591987;19;20078;-76
2023/09/06 02:35:45;;;;;;;11.15;9.27;;;15.90;99.90;;;;;;4590925;19;20011;-76
2023/09/06 02:37:26;;;;;;;10.50;9.00;;;15.90;99.90;;;;;;4593293;19;20003;-76
2023/09/06 02:39:06;;;;;;;11.77;9.02;;;15.90;99.90;;;;;;4592299;19;20023;-76
2023/09/06 02:40:47;;;;;;;12.30;9.00;;;15.90;99.90;;;;;;4592960;19;20007;-76
2023/09/06 02:42:28;;;;;;;10.30;8.25;;;15.80;99.90;;;;;;4592664;19;20011;-76
2023/09/06 02:44:21;;;;;;;10.13;7.78;;;15.80;99.90;;;;;;4590737;19;20445;-75
2023/09/06 02:46:03;;;;;;;10.20;7.70;;;15.90;99.90;;;;;;4593119;19;20015;-76
2023/09/06 02:47:48;;;;;;;11.88;8.93;;;15.80;99.90;;;;;;4592902;19;20015;-75
2023/09/06 02:49:29;;;;;;;10.07;8.35;;;15.80;99.90;;;;;;4593041;19;20027;-76
2023/09/06 02:51:10;;;;;;;11.18;9.90;;;15.80;99.90;;;;;;4593004;19;20007;-75
2023/09/06 02:52:52;;;;;;;9.52;8.38;;;15.80;99.90;;;;;;4592780;19;20441;-76
2023/09/06 02:54:34;;;;;;;9.93;8.88;;;15.80;99.90;;;;;;4592953;19;20518;-75
2023/09/06 02:56:14;;;;;;;11.80;9.20;;;15.80;99.90;;;;;;4593350;19;20453;-75
2023/09/06 02:57:56;;;;;;;9.38;8.32;;;15.80;99.90;;;;;;4592377;19;20437;-75
2023/09/06 02:59:37;;;;;;;9.90;8.45;;;15.80;99.90;;;;;;4592890;19;20017;-75
2023/09/06 03:01:22;;;;;;;9.52;8.05;;;15.80;99.90;;;;;;4592917;19;20010;-75
2023/09/06 03:03:08;;;;;;;11.07;8.85;;;15.70;99.90;;;;;;4591528;19;20315;-76
2023/09/06 03:04:51;;;;;;;9.63;7.93;;;15.80;99.90;;;;;;4592711;19;20067;-75
2023/09/06 03:06:33;;;;;;;10.10;8.70;;;15.80;99.90;;;;;;4593119;19;20050;-75
2023/09/06 03:08:15;;;;;;;9.63;8.43;;;15.80;99.90;;;;;;4591864;19;20014;-76
2023/09/06 03:09:55;;;;;;;9.82;8.82;;;15.80;99.90;;;;;;4592600;19;20010;-76
2023/09/06 03:11:35;;;;;;;9.18;8.27;;;15.80;99.90;;;;;;4593048;19;20002;-76
2023/09/06 03:13:20;;;;;;;10.70;9.23;;;15.80;99.90;;;;;;4592485;19;20007;-76
2023/09/06 03:15:01;;;;;;;11.50;10.07;;;15.80;99.90;;;;;;4592234;19;20027;-76
2023/09/06 03:16:54;;;;;;;10.63;8.57;;;15.80;99.90;;;;;;4589653;19;20039;-76
2023/09/06 03:18:32;;;;;;;10.27;8.52;;;15.80;99.90;;;;;;4592977;19;20034;-76
2023/09/06 03:20:31;;;;;;;10.77;8.95;;;15.70;99.90;;;;;;4592272;19;20029;-76
2023/09/06 03:22:13;;;;;;;10.32;8.95;;;15.80;99.90;;;;;;4591951;19;20010;-76
2023/09/06 03:24:01;;;;;;;10.20;8.05;;;15.80;99.90;;;;;;4592561;19;20011;-76
2023/09/06 03:25:40;;;;;;;10.10;8.57;;;15.70;99.90;;;;;;4592769;19;20011;-76
2023/09/06 03:27:21;;;;;;;11.60;9.35;;;15.70;99.90;;;;;;4592324;19;20035;-76
2023/09/06 03:29:01;;;;;;;9.80;8.80;;;15.70;99.90;;;;;;4591297;19;20034;-76
2023/09/06 03:30:42;;;;;;;11.57;8.52;;;15.70;99.90;;;;;;4592235;19;20078;-76
2023/09/06 03:32:22;;;;;;;11.55;9.65;;;15.70;99.90;;;;;;4592194;19;20021;-76
2023/09/06 03:34:01;;;;;;;11.45;9.43;;;15.60;99.90;;;;;;4590684;19;20010;-76
2023/09/06 03:35:45;;;;;;;11.07;8.57;;;15.60;99.90;;;;;;4592197;19;20022;-76
2023/09/06 03:37:28;;;;;;;11.35;9.38;;;15.60;99.90;;;;;;4592414;19;20014;-76
2023/09/06 03:39:06;;;;;;;;;;;15.60;99.90;;;;;;4591930;19;20033;-76
2023/09/06 03:40:49;;;;;;;10.25;8.65;;;15.60;99.90;;;;;;4591997;19;19914;-76
2023/09/06 03:42:34;;;;;;;10.02;8.98;;;15.60;99.90;;;;;;4592035;19;20007;-76
2023/09/06 03:44:14;;;;;;;10.80;8.65;;;15.60;99.90;;;;;;4592149;19;20014;-76
2023/09/06 03:45:55;;;;;;;12.18;10.05;;;15.60;99.90;;;;;;4591512;19;20014;-75
2023/09/06 03:47:38;;;;;;;10.35;8.95;;;15.60;99.90;;;;;;4591836;19;20010;-76
2023/09/06 03:49:18;;;;;;;11.00;8.77;;;15.60;99.90;;;;;;4592010;19;20010;-75
2023/09/06 03:51:00;;;;;;;10.43;9.07;;;15.50;99.90;;;;;;4590460;19;20077;-76
2023/09/06 03:52:37;;;;;;;10.50;9.07;;;15.50;99.90;;;;;;4592179;19;20410;-74
2023/09/06 03:54:17;;;;;;;9.93;8.90;;;15.50;99.90;;;;;;4591898;19;20081;-75
2023/09/06 03:55:50;;;;;;;12.48;9.70;;;15.50;99.90;;;;;;4586246;19;20017;-74
2023/09/06 03:57:32;;;;;;;11.38;8.75;;;15.50;99.90;;;;;;4591745;19;20014;-75
2023/09/06 03:59:12;;;;;;;11.15;9.27;;;15.50;99.90;;;;;;4591878;19;20027;-75
2023/09/06 04:00:52;;;;;;;10.88;8.68;;;15.50;99.90;;;;;;4591586;19;20048;-75
2023/09/06 04:02:35;;;;;;;12.10;9.45;;;15.50;99.90;;;;;;4591156;19;20010;-75
2023/09/06 04:04:16;;;;;;;12.75;9.30;;;15.50;99.90;;;;;;4591712;19;20009;-75
2023/09/06 04:05:57;;;;;;;11.88;9.25;;;15.50;99.90;;;;;;4591917;19;20334;-75
2023/09/06 04:07:38;;;;;;;11.50;9.50;;;15.50;99.90;;;;;;4591677;19;20007;-75
2023/09/06 04:09:18;;;;;;;11.35;8.95;;;15.60;99.90;;;;;;4591401;19;20049;-75
2023/09/06 04:10:59;;;;;;;11.45;9.40;;;15.60;99.90;;;;;;4591619;19;20500;-75
2023/09/06 04:12:39;;;;;;;10.77;8.90;;;15.60;99.90;;;;;;4591374;19;20006;-75
2023/09/06 04:14:34;;;;;;;11.45;9.02;;;15.60;99.90;;;;;;4589135;19;20738;-73
2023/09/06 04:16:13;;;;;;;13.20;10.27;;;15.50;99.90;;;;;;4591204;19;20018;-76
2023/09/06 04:17:58;;;;;;;11.65;9.57;;;15.50;99.90;;;;;;4591770;19;20320;-74
2023/09/06 04:19:38;;;;;;;12.93;10.32;;;15.50;99.90;;;;;;4592745;19;20007;-74
2023/09/06 04:21:17;;;;;;;11.63;9.63;;;15.50;99.90;;;;;;4591355;19;20078;-74
2023/09/06 04:22:58;;;;;;;12.57;10.30;;;15.50;99.90;;;;;;4590376;19;20018;-76
2023/09/06 04:26:42;;;;;;;11.00;9.88;;;15.50;99.90;;;;;;4592893;19;20019;-75
2023/09/06 04:28:20;;;;;;;11.77;9.93;;;15.60;99.90;;;;;;4590282;19;20018;-75
2023/09/06 04:30:02;;;;;;;10.07;9.00;;;15.50;99.90;;;;;;4590847;19;20433;-75
2023/09/06 04:34:37;;;;;;;12.27;10.27;;;15.50;99.90;;;;;;4590770;19;19987;-75
2023/09/06 04:36:30;;;;;;;11.07;9.55;;;15.60;99.90;;;;;;4588511;19;20441;-74
2023/09/06 04:38:10;;;;;;;11.68;10.15;;;15.60;99.90;;;;;;4591074;19;20010;-75
2023/09/06 04:39:53;;;;;;;14.85;10.77;;;15.60;99.90;;;;;;4590769;19;20015;-75
2023/09/06 04:41:34;;;;;;;9.45;8.52;;;15.60;99.90;;;;;;4590523;19;20010;-75
2023/09/06 04:43:13;;;;;;;11.68;8.73;;;15.60;99.90;;;;;;4590335;19;20011;-76
2023/09/06 04:44:54;;;;;;;12.05;8.90;;;15.70;99.90;;;;;;4590288;19;20011;-75
2023/09/06 04:46:35;;;;;;;10.73;9.00;;;15.70;99.90;;;;;;4590314;19;20014;-75
2023/09/06 04:48:17;;;;;;;11.65;9.90;;;15.70;99.90;;;;;;4590696;19;20081;-75
2023/09/06 04:49:58;;;;;;;10.50;9.15;;;15.70;99.90;;;;;;4590589;19;20010;-75
2023/09/06 04:51:39;;;;;;;10.47;9.37;;;15.70;99.90;;;;;;4590384;19;20018;-75
2023/09/06 04:53:31;;;;;;;10.15;8.93;;;15.70;99.90;;;;;;4588361;19;20078;-75
2023/09/06 04:55:21;;;;;;;;;;;15.80;99.90;;;;;;4589447;19;20011;-75
2023/09/06 04:57:16;;;;;;;10.43;9.25;;;15.70;99.90;;;;;;4588592;19;19919;-75
2023/09/06 04:58:55;;;;;;;11.15;9.95;;;15.70;99.90;;;;;;4588679;19;20113;-74
2023/09/06 05:00:33;;;;;;;11.48;10.27;;;15.80;99.90;;;;;;4592003;19;20018;-74
2023/09/06 05:02:08;;;;;;;10.57;9.48;;;15.80;99.90;;;;;;4592758;19;20018;-74
2023/09/06 05:06:19;;;;;;;;;;;;;;;;;;;;;
2023/09/06 05:10:51;;;;;;;11.80;10.32;;;15.90;99.90;;;;;;4588493;19;20042;-74
2023/09/06 05:18:25;;;;;;;11.77;10.68;;;15.90;99.90;;;;;;4589273;19;20094;-73
2023/09/06 05:20:35;;;;;;;12.27;10.98;;;16.00;99.90;;;;;;4587218;19;20014;-73
2023/09/06 05:23:06;;;;;;;12.20;10.80;;;16.00;99.90;;;;;;4587263;19;20324;-74
2023/09/06 05:25:55;;;;;;;12.93;11.60;;;16.00;99.90;;;;;;4587547;19;20015;-74
2023/09/06 05:27:34;;;;;;;13.48;12.07;;;16.10;99.90;;;;;;4589063;19;20070;-75
2023/09/06 05:29:15;;;;;;;13.82;12.40;;;16.10;99.90;;;;;;4588975;19;20443;-75
2023/09/06 05:30:57;;;;;;;16.77;12.85;;;16.10;99.90;;;;;;4588874;19;20027;-75
2023/09/06 05:32:49;;;;;;;14.35;12.85;;;16.20;99.90;;;;;;4587583;19;20015;-75
2023/09/06 05:34:41;;;;;;;14.32;12.82;;;16.20;99.90;;;;;;4586581;19;20114;-75
2023/09/06 05:36:33;;;;;;;15.23;13.63;;;16.20;99.90;;;;;;4587197;19;20011;-74
2023/09/06 05:38:27;;;;;;;14.27;12.63;;;16.20;99.90;;;;;;4587275;19;20015;-75
2023/09/06 05:40:22;;;;;;;15.45;12.70;;;16.30;99.90;;;;;;4587025;19;20044;-75
2023/09/06 05:42:25;;;;;;;14.63;13.13;;;16.30;99.90;;;;;;4586905;19;20334;-75
2023/09/06 05:44:11;;;;;;;16.50;13.63;;;16.40;99.90;;;;;;4588953;19;20041;-75
2023/09/06 05:45:52;;;;;;;14.88;13.38;;;16.40;99.90;;;;;;4587184;19;20098;-75
2023/09/06 05:47:57;;;;;;;15.25;13.63;;;16.40;99.90;;;;;;4588514;19;20479;-75
2023/09/06 05:49:51;;;;;;;15.52;13.82;;;16.50;99.90;;;;;;4586770;19;20315;-75
2023/09/06 05:51:31;;;;;;;15.27;13.68;;;16.50;99.90;;;;;;4589189;19;20007;-76
2023/09/06 05:53:12;;;;;;;15.82;14.18;;;16.60;99.90;;;;;;4588525;19;20037;-75
2023/09/06 05:54:52;;;;;;;15.60;14.00;;;16.60;99.90;;;;;;4587811;19;20086;-75
2023/09/06 05:56:44;;;;;;;16.50;13.50;;;16.60;99.90;;;;;;4587066;19;20402;-75
2023/09/06 05:58:38;;;;;;;15.38;13.70;;;16.70;99.90;;;;;;4586519;19;20019;-75
2023/09/06 06:00:56;;;;;;;15.55;13.98;;;16.70;99.90;;;;;;4587029;19;20010;-75
2023/09/06 06:03:29;;;;;;;16.05;14.32;;;16.80;99.90;;;;;;4588533;19;20096;-75
2023/09/06 06:05:30;;;;;;;16.48;14.70;;;16.80;99.90;;;;;;4587021;19;21359;-75
2023/09/06 06:08:14;;;;;;;16.83;13.88;;;16.80;99.90;;;;;;4586373;19;20041;-75
2023/09/06 06:10:06;;;;;;;17.15;14.20;;;16.90;99.90;;;;;;4589333;19;20011;-75
2023/09/06 06:12:33;;;;;;;16.90;14.93;;;16.90;99.90;;;;;;4593033;19;20023;-75
2023/09/06 06:15:32;;;;;;;16.50;14.80;;;17.00;99.90;;;;;;4591630;19;20014;-75
2023/09/06 06:17:25;;;;;;;18.27;16.00;;;17.00;99.90;;;;;;4590315;19;20011;-75
2023/09/06 07:33:03;;;;;;;10.82;8.90;;;20.10;99.90;;;;;;4591666;19;20018;-64
2023/09/06 07:34:46;;;;;;;11.52;8.43;;;20.10;99.90;;;;;;4591044;19;20139;-67
2023/09/06 07:36:18;;;;;;;11.07;8.80;;;20.10;99.90;;;;;;4590534;19;20017;-66
2023/09/06 07:38:05;;;;;;;12.55;9.50;;;20.10;99.90;;;;;;4588105;19;20447;-66
2023/09/06 07:39:38;;;;;;;12.32;9.77;;;20.10;99.90;;;;;;4591431;19;20023;-65
2023/09/06 07:49:52;;;;;;;12.50;9.52;;;20.30;99.90;;;;;;4591060;19;20013;-67
2023/09/06 10:24:51;;;;;;;5.57;4.35;;;22.40;99.90;;;;;;4585915;19;20017;-71
2023/09/06 11:23:47;;;;;;;5.05;4.22;;;22.70;99.90;;;;;;4587457;19;20022;-62
2023/09/06 11:47:35;;;;;;;5.03;3.63;;;23.70;99.90;;;;;;4588148;19;20014;-63
2023/09/06 11:49:07;;;;;;;4.63;3.70;;;23.80;99.90;;;;;;4587819;19;20010;-64
2023/09/06 11:59:32;;;;;;;6.00;3.70;;;22.80;99.90;;;;;;4588947;19;20014;-63
2023/09/06 12:03:30;;;;;;;4.63;3.85;;;23.30;99.90;;;;;;4589683;19;20011;-63
2023/09/06 12:05:11;;;;;;;4.50;3.30;;;23.30;99.90;;;;;;4589667;19;20013;-63
2023/09/06 12:06:43;;;;;;;4.22;3.47;;;23.40;99.90;;;;;;4587878;19;20019;-64
2023/09/06 12:08:23;;;;;;;4.57;3.65;;;23.50;99.90;;;;;;4588456;19;20015;-64
2023/09/06 12:09:59;;;;;;;5.18;3.67;;;23.50;99.90;;;;;;4588603;19;20376;-64
2023/09/06 12:11:38;;;;;;;4.38;3.70;;;23.50;99.90;;;;;;4589513;19;20082;-65
2023/09/06 12:15:20;;;;;;;4.43;3.38;;;23.70;99.90;;;;;;4589737;19;20013;-64
2023/09/06 12:18:27;;;;;;;4.33;3.43;;;23.40;99.90;;;;;;4557434;19;3113610;-65
2023/09/06 12:21:52;;;;;;;4.10;3.15;;;23.50;99.90;;;;;;4587570;19;20337;-65
2023/09/06 12:23:33;;;;;;;4.70;3.63;;;23.60;99.90;;;;;;4591963;19;20090;-73
2023/09/06 12:25:08;;;;;;;4.18;3.28;;;23.50;99.90;;;;;;4592995;19;20432;-73
2023/09/06 12:26:42;;;;;;;5.45;3.45;;;23.40;99.90;;;;;;4592888;19;20006;-73
2023/09/06 12:28:17;;;;;;;3.83;2.80;;;23.40;99.90;;;;;;4593360;19;20013;-73
2023/09/06 12:29:53;;;;;;;5.47;3.38;;;23.20;99.90;;;;;;4593081;19;20002;-75
2023/09/06 12:31:27;;;;;;;3.58;2.90;;;23.00;99.90;;;;;;4593139;19;20421;-73
2023/09/06 12:33:03;;;;;;;4.70;3.20;;;22.00;99.90;;;;;;4592037;19;20011;-72
2023/09/06 12:34:38;;;;;;;6.07;4.68;;;21.50;99.90;;;;;;4592918;19;20043;-73
2023/09/06 12:36:13;;;;;;;4.20;3.53;;;21.40;99.90;;;;;;4591298;19;20010;-71
2023/09/06 12:37:49;;;;;;;6.90;3.70;;;21.50;99.90;;;;;;4592675;19;20346;-71
2023/09/06 12:39:23;;;;;;;5.30;3.90;;;21.60;99.90;;;;;;4592868;19;20078;-72
2023/09/06 12:40:58;;;;;;;4.13;3.40;;;21.70;99.90;;;;;;4592492;19;20007;-71
2023/09/06 12:42:34;;;;;;;3.85;3.35;;;21.70;99.90;;;;;;4590728;19;20337;-71
2023/09/06 12:44:08;;;;;;;4.78;3.30;;;21.80;99.90;;;;;;4592235;19;20062;-71
2023/09/06 12:45:42;;;;;;;4.70;3.67;;;21.90;99.90;;;;;;4592784;19;20014;-71
2023/09/06 12:47:19;;;;;;;5.68;3.60;;;21.90;99.90;;;;;;4591177;19;20013;-72
2023/09/06 12:48:53;;;;;;;3.70;3.20;;;22.00;99.90;;;;;;4591036;19;19999;-72
2023/09/06 12:50:27;;;;;;;6.13;3.92;;;22.10;99.90;;;;;;4590989;19;20296;-71
2023/09/06 12:52:04;;;;;;;4.68;3.55;;;22.20;99.90;;;;;;4590769;19;20034;-71
2023/09/06 12:53:38;;;;;;;3.88;3.03;;;22.20;99.90;;;;;;4592280;19;20421;-72
2023/09/06 12:55:13;;;;;;;3.83;3.20;;;22.30;99.90;;;;;;4592284;19;20062;-71
2023/09/06 12:56:49;;;;;;;5.88;3.22;;;22.40;99.90;;;;;;4590954;19;20010;-71
2023/09/06 12:58:23;;;;;;;5.13;3.22;;;22.50;99.90;;;;;;4592299;19;20452;-71
2023/09/06 12:59:58;;;;;;;4.32;3.25;;;22.50;99.90;;;;;;4592244;19;20032;-71
2023/09/06 13:01:35;;;;;;;4.60;3.50;;;22.50;99.90;;;;;;4592325;19;20010;-71
2023/09/06 13:03:11;;;;;;;4.55;2.97;;;22.60;99.90;;;;;;4591020;19;20010;-72
2023/09/06 13:04:48;;;;;;;7.30;3.92;;;22.60;99.90;;;;;;4592276;19;20166;-71
2023/09/06 13:06:23;;;;;;;4.28;3.05;;;22.60;99.90;;;;;;4592511;19;20007;-71
2023/09/06 13:08:01;;;;;;;5.20;4.10;;;22.60;99.90;;;;;;4591072;19;20006;-74
2023/09/06 13:09:35;;;;;;;4.47;2.97;;;22.70;99.90;;;;;;4590803;19;20061;-73
2023/09/06 13:11:12;;;;;;;4.45;3.38;;;22.70;99.90;;;;;;4591490;19;20013;-73
2023/09/06 13:12:46;;;;;;;4.75;3.60;;;22.70;99.90;;;;;;4590646;19;20426;-73
2023/09/06 13:14:21;;;;;;;4.38;3.00;;;22.80;99.90;;;;;;4591390;19;20042;-73
2023/09/06 13:15:56;;;;;;;3.20;2.50;;;22.90;99.90;;;;;;4591535;19;20010;-73
2023/09/06 13:17:31;;;;;;;3.63;2.90;;;23.10;99.90;;;;;;4591725;19;20017;-73
2023/09/06 13:19:06;;;;;;;3.38;2.58;;;23.20;99.90;;;;;;4591978;19;20002;-73
2023/09/06 13:20:41;;;;;;;3.58;2.65;;;23.30;99.90;;;;;;4596736;19;20354;-73
2023/09/06 13:22:16;;;;;;;3.63;2.58;;;23.40;99.90;;;;;;4593975;19;20107;-74
2023/09/06 13:23:50;;;;;;;4.07;3.00;;;23.40;99.90;;;;;;4594457;19;20022;-73
2023/09/06 13:25:26;;;;;;;3.85;2.80;;;23.40;99.90;;;;;;4594764;19;20018;-73
2023/09/06 13:27:01;;;;;;;3.78;2.35;;;23.40;99.90;;;;;;4596067;19;20007;-73
2023/09/06 13:28:35;;;;;;;5.57;2.90;;;23.50;99.90;;;;;;4595074;19;20002;-73
2023/09/06 13:30:12;;;;;;;3.58;2.92;;;23.50;99.90;;;;;;4595861;19;20082;-74
2023/09/06 13:31:46;;;;;;;4.55;2.47;;;23.60;99.90;;;;;;4594842;19;20036;-74
2023/09/06 13:33:20;;;;;;;3.90;2.50;;;23.60;99.90;;;;;;4595702;19;20023;-73
2023/09/06 13:34:56;;;;;;;3.63;2.78;;;23.70;99.90;;;;;;4596075;19;20023;-75
2023/09/06 13:36:35;;;;;;;4.43;2.58;;;23.70;99.90;;;;;;4596229;19;20532;-73
2023/09/06 13:38:12;;;;;;;4.45;2.60;;;23.70;99.90;;;;;;4595923;19;20014;-74
2023/09/06 13:39:48;;;;;;;4.35;2.33;;;23.60;99.90;;;;;;4595991;19;20008;-73
2023/09/06 13:41:22;;;;;;;3.95;2.80;;;23.60;99.90;;;;;;4596078;19;20035;-73
2023/09/06 13:42:56;;;;;;;3.35;2.53;;;23.60;99.90;;;;;;4594245;19;20027;-73
2023/09/06 13:44:36;;;;;;;2.95;2.42;;;23.60;99.90;;;;;;4596156;19;20294;-73
2023/09/06 13:46:11;;;;;;;3.20;2.70;;;23.50;99.90;;;;;;4595914;19;20013;-73
2023/09/06 13:47:45;;;;;;;3.42;2.63;;;23.50;99.90;;;;;;4595788;19;19998;-73
2023/09/06 13:49:22;;;;;;;3.72;2.58;;;23.50;99.90;;;;;;4595805;19;20039;-73
2023/09/06 13:50:57;;;;;;;4.35;2.33;;;23.50;99.90;;;;;;4595719;19;20012;-73
2023/09/06 13:52:31;;;;;;;3.83;2.40;;;23.40;99.90;;;;;;4594659;19;20003;-72
2023/09/06 13:54:07;;;;;;;3.20;2.33;;;23.40;99.90;;;;;;4595700;19;20007;-73
2023/09/06 13:55:41;;;;;;;3.05;2.20;;;23.30;99.90;;;;;;4595663;19;20441;-73
2023/09/06 13:57:15;;;;;;;5.18;2.90;;;23.30;99.90;;;;;;4595823;19;20062;-73
2023/09/06 13:58:51;;;;;;;3.30;2.80;;;23.30;99.90;;;;;;4595660;19;20069;-73
2023/09/06 14:00:26;;;;;;;5.60;3.10;;;23.30;99.90;;;;;;4594076;19;20006;-73
2023/09/06 14:02:00;;;;;;;6.22;3.33;;;23.20;99.90;;;;;;4594557;19;20014;-75
2023/09/06 14:03:37;;;;;;;3.53;2.67;;;23.20;99.90;;;;;;4592899;19;20014;-73
2023/09/06 14:05:11;;;;;;;3.60;2.63;;;23.30;99.90;;;;;;4595452;19;20412;-72
2023/09/06 14:06:47;;;;;;;5.10;2.83;;;23.20;99.90;;;;;;4595272;19;20027;-73
2023/09/06 14:08:23;;;;;;;4.22;2.75;;;23.30;99.90;;;;;;4595358;19;20010;-73
2023/09/06 14:09:58;;;;;;;3.45;2.20;;;23.20;99.90;;;;;;4595352;19;20015;-73
2023/09/06 14:11:33;;;;;;;3.65;2.63;;;23.20;99.90;;;;;;4595306;19;20062;-73
2023/09/06 14:13:09;;;;;;;4.38;3.28;;;23.30;99.90;;;;;;4593648;19;20010;-74
2023/09/06 14:14:43;;;;;;;3.42;2.67;;;23.30;99.90;;;;;;4595515;19;20073;-73
2023/09/06 14:16:17;;;;;;;3.47;2.92;;;23.40;99.90;;;;;;4595382;19;20002;-74
2023/09/06 14:17:53;;;;;;;4.30;3.15;;;23.40;99.90;;;;;;4595287;19;20007;-74
2023/09/06 14:19:31;;;;;;;3.80;3.00;;;23.40;99.90;;;;;;4595369;19;20009;-73
2023/09/06 14:21:07;;;;;;;3.30;2.35;;;23.40;99.90;;;;;;4595251;19;20022;-73
2023/09/06 14:22:43;;;;;;;3.47;2.53;;;23.30;99.90;;;;;;4592524;19;20014;-74
2023/09/06 14:24:17;;;;;;;3.72;2.65;;;23.40;99.90;;;;;;4593957;19;20342;-73
2023/09/06 14:25:52;;;;;;;4.45;2.85;;;23.40;99.90;;;;;;4594896;19;20314;-75
2023/09/06 14:27:27;;;;;;;3.47;2.90;;;23.40;99.90;;;;;;4595105;19;20069;-73
2023/09/06 14:29:02;;;;;;;3.65;2.60;;;23.40;99.90;;;;;;4594955;19;20069;-73
2023/09/06 14:30:40;;;;;;;5.22;3.25;;;23.40;99.90;;;;;;4593131;19;20026;-73
2023/09/06 14:32:16;;;;;;;4.75;3.08;;;23.30;99.90;;;;;;4592315;19;20011;-73
2023/09/06 14:33:51;;;;;;;5.07;3.08;;;23.40;99.90;;;;;;4593685;19;20002;-73
2023/09/06 14:35:26;;;;;;;3.63;2.50;;;23.40;99.90;;;;;;4593571;19;20026;-73
2023/09/06 14:37:01;;;;;;;3.60;2.75;;;23.40;99.90;;;;;;4594453;19;20023;-73
2023/09/06 14:38:36;;;;;;;5.35;3.35;;;23.50;99.90;;;;;;4594875;19;20440;-73
2023/09/06 14:40:11;;;;;;;4.57;3.25;;;23.50;99.90;;;;;;4594648;19;20017;-73
2023/09/06 14:41:46;;;;;;;4.32;3.10;;;23.50;99.90;;;;;;4594522;19;20013;-74
2023/09/06 14:43:21;;;;;;;3.50;2.85;;;23.40;99.90;;;;;;4593626;19;20011;-74
2023/09/06 14:44:55;;;;;;;3.47;2.67;;;23.50;99.90;;;;;;4594137;19;20062;-73
2023/09/06 14:46:31;;;;;;;3.50;2.40;;;23.40;99.90;;;;;;4594071;19;20006;-73
2023/09/06 14:48:06;;;;;;;4.72;2.85;;;23.50;99.90;;;;;;4592924;19;20006;-77
2023/09/06 14:49:40;;;;;;;4.20;3.28;;;23.40;99.90;;;;;;4593648;19;20282;-74